createdAt,value
2022-12-02T00:04:35.904Z,24.94
2022-12-02T00:09:43.168Z,24.97
2022-12-02T00:14:50.842Z,24.97
2022-12-02T00:19:57.601Z,24.95
2022-12-02T00:25:04.819Z,24.99
2022-12-02T00:30:12.147Z,25.04
2022-12-02T00:35:19.361Z,25.08
2022-12-02T00:40:26.509Z,25.14
2022-12-02T00:45:33.821Z,25.16
2022-12-02T00:50:40.919Z,25.21
2022-12-02T00:55:48.102Z,25.22
2022-12-02T01:00:55.327Z,25.26
2022-12-02T01:06:02.436Z,25.19
2022-12-02T01:11:09.634Z,25.11
2022-12-02T01:16:16.968Z,24.99
2022-12-02T01:21:24.090Z,24.89
2022-12-02T01:26:31.302Z,24.80
2022-12-02T01:31:38.561Z,24.69
2022-12-02T01:36:45.704Z,24.61
2022-12-02T01:41:52.876Z,24.50
2022-12-02T01:47:00.101Z,24.34
2022-12-02T01:52:07.254Z,24.18
2022-12-02T01:57:14.482Z,24.03
2022-12-02T02:02:21.758Z,23.90
2022-12-02T02:07:28.964Z,23.81
2022-12-02T02:12:36.111Z,23.70
2022-12-02T02:17:43.304Z,23.60
2022-12-02T02:22:50.525Z,23.46
2022-12-02T02:27:57.739Z,23.28
2022-12-02T02:33:04.947Z,23.11
2022-12-02T02:38:12.177Z,22.90
2022-12-02T02:43:19.453Z,22.66
2022-12-02T02:48:26.688Z,22.47
2022-12-02T02:53:33.867Z,22.30
2022-12-02T02:58:41.064Z,22.06
2022-12-02T03:03:48.299Z,21.86
2022-12-02T03:08:55.489Z,21.64
2022-12-02T03:14:02.666Z,21.40
2022-12-02T03:19:09.974Z,21.19
2022-12-02T03:24:17.173Z,21.04
2022-12-02T03:29:24.388Z,20.86
2022-12-02T03:34:31.621Z,20.69
2022-12-02T03:39:38.823Z,20.55
2022-12-02T03:44:46.017Z,20.43
2022-12-02T03:49:53.308Z,20.36
2022-12-02T03:55:01.224Z,20.24
2022-12-02T04:00:11.235Z,20.12
2022-12-02T04:05:15.064Z,20.02
2022-12-02T04:10:22.206Z,19.91
2022-12-02T04:15:29.493Z,19.85
2022-12-02T04:20:36.654Z,19.75
2022-12-02T04:25:43.778Z,19.66
2022-12-02T04:30:50.962Z,19.55
2022-12-02T04:35:58.156Z,19.59
2022-12-02T04:41:05.330Z,19.82
2022-12-02T04:46:12.610Z,20.13
2022-12-02T04:51:19.782Z,20.36
2022-12-02T04:56:26.960Z,20.48
2022-12-02T05:01:34.168Z,20.51
2022-12-02T05:06:41.382Z,20.52
2022-12-02T05:11:48.566Z,20.51
2022-12-02T05:16:55.766Z,20.38
2022-12-02T05:22:03.016Z,20.25
2022-12-02T05:27:10.123Z,20.13
2022-12-02T05:32:17.274Z,20.06
2022-12-02T05:37:24.572Z,19.89
2022-12-02T05:42:31.815Z,19.81
2022-12-02T05:47:38.991Z,19.72
2022-12-02T05:52:46.255Z,19.72
2022-12-02T05:57:53.467Z,20.09
2022-12-02T06:03:00.885Z,20.21
2022-12-02T06:08:08.063Z,20.30
2022-12-02T06:13:15.127Z,20.38
2022-12-02T06:18:22.324Z,20.45
2022-12-02T06:23:29.575Z,20.61
2022-12-02T06:28:36.727Z,20.76
2022-12-02T06:33:43.937Z,20.90
2022-12-02T06:38:51.172Z,21.00
2022-12-02T06:43:58.357Z,21.21
2022-12-02T06:49:05.555Z,21.36
2022-12-02T06:54:12.782Z,21.52
2022-12-02T06:59:19.957Z,21.68
2022-12-02T07:04:27.184Z,21.79
2022-12-02T07:09:34.390Z,21.93
2022-12-02T07:14:41.569Z,22.04
2022-12-02T07:19:48.818Z,22.17
2022-12-02T07:24:56.020Z,22.25
2022-12-02T07:30:03.167Z,22.32
2022-12-02T07:35:10.394Z,22.38
2022-12-02T07:40:17.624Z,22.41
2022-12-02T07:45:24.737Z,22.66
2022-12-02T07:50:31.886Z,22.84
2022-12-02T07:55:39.083Z,22.94
2022-12-02T08:00:46.212Z,22.97
2022-12-02T08:05:53.390Z,23.02
2022-12-02T08:11:00.755Z,23.10
2022-12-02T08:16:07.942Z,23.23
2022-12-02T08:21:15.146Z,23.28
2022-12-02T08:26:22.327Z,23.38
2022-12-02T08:31:29.565Z,23.49
2022-12-02T08:36:36.687Z,23.53
2022-12-02T08:41:43.896Z,23.61
2022-12-02T08:46:54.526Z,23.71
2022-12-02T08:51:58.260Z,23.73
2022-12-02T08:57:05.535Z,23.71
2022-12-02T09:02:12.744Z,23.68
2022-12-02T09:07:19.830Z,23.69
2022-12-02T09:12:27.035Z,23.64
2022-12-02T09:17:39.400Z,23.69
2022-12-02T09:22:46.610Z,23.73
2022-12-02T09:27:53.848Z,23.76
2022-12-02T09:33:01.058Z,23.78
2022-12-02T09:38:08.250Z,23.81
2022-12-02T09:43:15.435Z,23.81
2022-12-02T09:48:22.648Z,23.82
2022-12-02T09:53:29.810Z,23.84
2022-12-02T09:58:37.107Z,23.84
2022-12-02T10:03:44.245Z,23.81
2022-12-02T10:08:51.459Z,23.79
2022-12-02T10:13:58.687Z,23.79
2022-12-02T10:19:05.887Z,23.81
2022-12-02T10:24:13.175Z,23.83
2022-12-02T10:29:20.414Z,23.86
2022-12-02T10:34:28.635Z,23.88
2022-12-02T10:39:38.279Z,23.92
2022-12-02T10:44:42.017Z,23.92
2022-12-02T10:49:49.203Z,23.93
2022-12-02T10:54:56.872Z,23.93
2022-12-02T11:00:03.707Z,23.96
2022-12-02T11:05:10.863Z,23.96
2022-12-02T11:10:18.020Z,23.97
2022-12-02T11:15:25.250Z,23.98
2022-12-02T11:20:32.398Z,23.98
2022-12-02T11:25:39.639Z,23.95
2022-12-02T11:30:47.134Z,23.94
2022-12-02T11:35:54.304Z,23.94
2022-12-02T11:41:01.473Z,23.95
2022-12-02T11:46:08.765Z,23.97
2022-12-02T11:51:15.833Z,24.00
2022-12-02T11:56:23.058Z,24.01
2022-12-02T12:01:30.329Z,24.03
2022-12-02T12:06:37.559Z,24.03
2022-12-02T12:11:44.723Z,23.99
2022-12-02T12:16:52.084Z,24.00
2022-12-02T12:21:59.257Z,23.99
2022-12-02T12:27:06.429Z,24.01
2022-12-02T12:32:13.646Z,24.04
2022-12-02T12:37:20.841Z,24.07
2022-12-02T12:42:28.032Z,24.08
2022-12-02T12:47:35.287Z,24.12
2022-12-02T12:52:42.439Z,24.11
2022-12-02T12:57:49.658Z,24.12
2022-12-02T13:02:56.914Z,24.12
2022-12-02T13:08:09.441Z,24.04
2022-12-02T13:13:11.304Z,24.14
2022-12-02T13:18:18.575Z,24.17
2022-12-02T13:23:25.763Z,24.15
2022-12-02T13:28:32.958Z,24.13
2022-12-02T13:33:40.184Z,24.08
2022-12-02T13:38:47.384Z,24.06
2022-12-02T13:43:54.579Z,24.06
2022-12-02T13:49:01.801Z,24.08
2022-12-02T13:54:09.031Z,24.10
2022-12-02T13:59:16.209Z,24.10
2022-12-02T14:04:23.381Z,24.12
2022-12-02T14:09:30.546Z,24.14
2022-12-02T14:14:37.798Z,24.17
2022-12-02T14:19:44.979Z,24.18
2022-12-02T14:24:52.640Z,24.20
2022-12-02T14:30:04.557Z,24.19
2022-12-02T14:35:11.779Z,24.21
2022-12-02T14:40:18.961Z,24.25
2022-12-02T14:45:26.202Z,24.25
2022-12-02T14:50:33.521Z,24.25
2022-12-02T14:55:40.657Z,24.22
2022-12-02T15:00:47.889Z,24.22
2022-12-02T15:05:55.140Z,24.21
2022-12-02T15:11:02.288Z,24.25
2022-12-02T15:16:09.539Z,24.26
2022-12-02T15:21:17.022Z,24.27
2022-12-02T15:26:24.394Z,24.25
2022-12-02T15:31:31.837Z,24.22
2022-12-02T15:36:39.158Z,24.24
2022-12-02T15:41:47.347Z,24.24
2022-12-02T15:46:54.640Z,24.26
2022-12-02T15:52:02.087Z,24.27
2022-12-02T15:57:09.439Z,24.28
2022-12-02T16:02:17.044Z,24.28
2022-12-02T16:07:24.451Z,24.28
2022-12-02T16:12:31.675Z,24.31
2022-12-02T16:17:39.027Z,24.32
2022-12-02T16:22:46.655Z,24.33
2022-12-02T16:27:53.965Z,24.32
2022-12-02T16:33:01.186Z,24.30
2022-12-02T16:38:08.363Z,24.26
2022-12-02T16:43:15.964Z,24.17
2022-12-02T16:48:23.344Z,24.15
2022-12-02T16:53:30.601Z,24.17
2022-12-02T16:58:37.775Z,24.23
2022-12-02T17:03:45.051Z,24.26
2022-12-02T17:08:55.868Z,24.29
2022-12-02T17:14:00.314Z,24.30
2022-12-02T17:19:07.936Z,24.29
2022-12-02T17:24:15.558Z,24.25
2022-12-02T17:29:23.150Z,24.25
2022-12-02T17:34:30.475Z,24.25
2022-12-02T17:39:37.996Z,24.28
2022-12-02T17:44:45.502Z,24.25
2022-12-02T17:49:52.762Z,24.17
2022-12-02T17:55:03.197Z,24.11
2022-12-02T18:00:17.568Z,24.06
2022-12-02T18:05:24.823Z,24.18
2022-12-02T18:10:32.214Z,24.27
2022-12-02T18:15:39.768Z,24.33
2022-12-02T18:20:47.138Z,24.36
2022-12-02T18:25:54.714Z,24.42
2022-12-02T18:31:02.346Z,24.45
2022-12-02T18:36:10.331Z,24.45
2022-12-02T18:41:17.668Z,24.42
2022-12-02T18:46:25.352Z,24.44
2022-12-02T18:51:32.970Z,24.47
2022-12-02T18:56:40.605Z,24.50
2022-12-02T19:01:48.302Z,24.52
2022-12-02T19:06:55.916Z,24.54
2022-12-02T19:12:03.353Z,24.55
2022-12-02T19:17:16.676Z,24.54
2022-12-02T19:22:24.390Z,24.56
2022-12-02T19:27:57.010Z,24.57
2022-12-02T19:32:39.620Z,24.58
2022-12-02T19:37:47.230Z,24.55
2022-12-02T19:42:54.887Z,24.47
2022-12-02T19:48:02.462Z,24.41
2022-12-02T19:53:13.148Z,24.35
2022-12-02T19:58:20.792Z,24.32
2022-12-02T20:03:28.920Z,24.33
2022-12-02T20:08:36.174Z,24.35
2022-12-02T20:13:43.842Z,24.36
2022-12-02T20:18:51.447Z,24.38
2022-12-02T20:23:59.154Z,24.39
2022-12-02T20:29:06.887Z,24.40
2022-12-02T20:34:20.626Z,24.44
2022-12-02T20:39:28.344Z,24.55
2022-12-02T20:44:35.978Z,24.58
2022-12-02T20:49:43.882Z,24.69
2022-12-02T20:54:51.995Z,24.71
2022-12-02T20:59:59.226Z,24.77
2022-12-02T21:05:06.758Z,24.85
2022-12-02T21:10:17.478Z,24.90
2022-12-02T21:15:24.740Z,24.88
2022-12-02T21:20:47.178Z,24.86
2022-12-02T21:25:54.592Z,24.81
2022-12-02T21:31:01.917Z,24.79
2022-12-02T21:36:09.707Z,24.88
2022-12-02T21:41:17.326Z,24.89
2022-12-02T21:46:40.017Z,24.96
2022-12-02T21:51:47.208Z,25.01
2022-12-02T21:56:54.441Z,24.99
2022-12-02T22:02:01.952Z,24.89
2022-12-02T22:07:08.922Z,24.84
2022-12-02T22:12:26.275Z,24.81
2022-12-02T22:17:33.487Z,24.85
2022-12-02T22:22:40.676Z,24.85
2022-12-02T22:27:47.874Z,24.96
2022-12-02T22:32:55.099Z,24.97
2022-12-02T22:38:02.295Z,25.07
2022-12-02T22:43:09.478Z,25.12
2022-12-02T22:48:16.742Z,25.14
2022-12-02T22:53:23.959Z,25.11
2022-12-02T22:58:31.133Z,25.12
2022-12-02T23:03:48.880Z,24.95
2022-12-02T23:08:56.078Z,24.94
2022-12-02T23:14:03.279Z,24.83
2022-12-02T23:19:10.544Z,24.84
2022-12-02T23:24:17.771Z,24.87
2022-12-02T23:29:25.009Z,24.95
2022-12-02T23:34:32.269Z,25.02
2022-12-02T23:39:39.497Z,25.08
2022-12-02T23:44:46.698Z,25.09
2022-12-02T23:49:53.895Z,25.13
2022-12-02T23:55:01.117Z,25.20
